sensor_id;sensor_type;location;lat;lon;timestamp;P1;durP1;ratioP1;P2;durP2;ratioP2
20997;SDS011;10657;51.276;6.390;2023-09-08T00:02:24;12.27;;;7.20;;
20997;SDS011;10657;51.276;6.390;2023-09-08T00:04:52;13.20;;;7.15;;
20997;SDS011;10657;51.276;6.390;2023-09-08T00:07:19;12.90;;;6.50;;
20997;SDS011;10657;51.276;6.390;2023-09-08T00:09:46;10.10;;;6.90;;
20997;SDS011;10657;51.276;6.390;2023-09-08T00:12:13;12.05;;;6.45;;
20997;SDS011;10657;51.276;6.390;2023-09-08T00:14:40;9.77;;;6.60;;
20997;SDS011;10657;51.276;6.390;2023-09-08T00:17:06;13.50;;;6.75;;
20997;SDS011;10657;51.276;6.390;2023-09-08T00:19:33;14.00;;;6.90;;
20997;SDS011;10657;51.276;6.390;2023-09-08T00:22:00;11.50;;;6.65;;
20997;SDS011;10657;51.276;6.390;2023-09-08T00:24:27;11.57;;;7.15;;
20997;SDS011;10657;51.276;6.390;2023-09-08T00:26:54;13.68;;;6.90;;
20997;SDS011;10657;51.276;6.390;2023-09-08T00:29:20;12.38;;;6.57;;
20997;SDS011;10657;51.276;6.390;2023-09-08T00:31:47;13.75;;;6.75;;
20997;SDS011;10657;51.276;6.390;2023-09-08T00:34:14;11.50;;;6.68;;
20997;SDS011;10657;51.276;6.390;2023-09-08T00:36:41;12.07;;;7.25;;
20997;SDS011;10657;51.276;6.390;2023-09-08T00:39:07;13.43;;;7.60;;
20997;SDS011;10657;51.276;6.390;2023-09-08T00:41:34;12.88;;;7.60;;
20997;SDS011;10657;51.276;6.390;2023-09-08T00:44:01;13.52;;;7.35;;
20997;SDS011;10657;51.276;6.390;2023-09-08T00:46:28;10.50;;;6.75;;
20997;SDS011;10657;51.276;6.390;2023-09-08T00:48:56;12.88;;;6.90;;
20997;SDS011;10657;51.276;6.390;2023-09-08T00:51:23;17.40;;;7.53;;
20997;SDS011;10657;51.276;6.390;2023-09-08T00:53:50;14.93;;;7.45;;
20997;SDS011;10657;51.276;6.390;2023-09-08T00:56:17;15.52;;;7.78;;
20997;SDS011;10657;51.276;6.390;2023-09-08T00:58:44;12.40;;;7.65;;
20997;SDS011;10657;51.276;6.390;2023-09-08T01:01:11;13.65;;;7.53;;
20997;SDS011;10657;51.276;6.390;2023-09-08T01:03:37;14.23;;;8.02;;
20997;SDS011;10657;51.276;6.390;2023-09-08T01:06:04;12.57;;;7.65;;
20997;SDS011;10657;51.276;6.390;2023-09-08T01:08:32;13.40;;;7.90;;
20997;SDS011;10657;51.276;6.390;2023-09-08T01:11:00;11.75;;;7.70;;
20997;SDS011;10657;51.276;6.390;2023-09-08T01:13:28;12.90;;;7.55;;
20997;SDS011;10657;51.276;6.390;2023-09-08T01:15:54;12.25;;;8.27;;
20997;SDS011;10657;51.276;6.390;2023-09-08T01:18:21;14.07;;;8.07;;
20997;SDS011;10657;51.276;6.390;2023-09-08T01:20:57;12.98;;;7.53;;
20997;SDS011;10657;51.276;6.390;2023-09-08T01:23:59;11.02;;;6.97;;
20997;SDS011;10657;51.276;6.390;2023-09-08T01:26:47;17.23;;;7.43;;
20997;SDS011;10657;51.276;6.390;2023-09-08T01:29:14;12.60;;;7.63;;
20997;SDS011;10657;51.276;6.390;2023-09-08T01:31:42;12.88;;;7.43;;
20997;SDS011;10657;51.276;6.390;2023-09-08T01:34:11;11.70;;;6.95;;
20997;SDS011;10657;51.276;6.390;2023-09-08T01:36:39;12.45;;;6.82;;
20997;SDS011;10657;51.276;6.390;2023-09-08T01:39:05;12.18;;;7.35;;
20997;SDS011;10657;51.276;6.390;2023-09-08T01:41:32;15.88;;;7.38;;
20997;SDS011;10657;51.276;6.390;2023-09-08T01:43:59;11.55;;;7.20;;
20997;SDS011;10657;51.276;6.390;2023-09-08T01:46:31;12.73;;;7.85;;
20997;SDS011;10657;51.276;6.390;2023-09-08T01:48:58;11.93;;;7.57;;
20997;SDS011;10657;51.276;6.390;2023-09-08T01:51:24;15.68;;;7.82;;
20997;SDS011;10657;51.276;6.390;2023-09-08T01:53:51;14.35;;;8.77;;
20997;SDS011;10657;51.276;6.390;2023-09-08T01:56:17;12.48;;;7.75;;
20997;SDS011;10657;51.276;6.390;2023-09-08T01:58:44;12.35;;;7.63;;
20997;SDS011;10657;51.276;6.390;2023-09-08T02:01:11;11.18;;;6.90;;
20997;SDS011;10657;51.276;6.390;2023-09-08T02:03:38;13.05;;;7.13;;
20997;SDS011;10657;51.276;6.390;2023-09-08T02:06:04;11.10;;;7.10;;
20997;SDS011;10657;51.276;6.390;2023-09-08T02:08:31;12.02;;;7.55;;
20997;SDS011;10657;51.276;6.390;2023-09-08T02:10:58;12.85;;;7.53;;
20997;SDS011;10657;51.276;6.390;2023-09-08T02:13:25;14.93;;;7.38;;
20997;SDS011;10657;51.276;6.390;2023-09-08T02:15:51;14.43;;;7.20;;
20997;SDS011;10657;51.276;6.390;2023-09-08T02:18:18;15.70;;;7.43;;
20997;SDS011;10657;51.276;6.390;2023-09-08T02:20:45;12.13;;;7.55;;
20997;SDS011;10657;51.276;6.390;2023-09-08T02:23:11;13.18;;;8.68;;
20997;SDS011;10657;51.276;6.390;2023-09-08T02:25:38;15.23;;;8.55;;
20997;SDS011;10657;51.276;6.390;2023-09-08T02:28:05;17.55;;;9.02;;
20997;SDS011;10657;51.276;6.390;2023-09-08T02:30:32;15.60;;;8.82;;
20997;SDS011;10657;51.276;6.390;2023-09-08T02:32:58;14.02;;;8.80;;
20997;SDS011;10657;51.276;6.390;2023-09-08T02:35:25;13.15;;;8.10;;
20997;SDS011;10657;51.276;6.390;2023-09-08T02:37:53;17.10;;;8.65;;
20997;SDS011;10657;51.276;6.390;2023-09-08T02:40:20;15.43;;;8.27;;
20997;SDS011;10657;51.276;6.390;2023-09-08T02:42:47;15.15;;;8.57;;
20997;SDS011;10657;51.276;6.390;2023-09-08T02:45:13;14.23;;;8.48;;
20997;SDS011;10657;51.276;6.390;2023-09-08T02:47:40;13.77;;;7.50;;
20997;SDS011;10657;51.276;6.390;2023-09-08T02:50:07;15.88;;;7.97;;
20997;SDS011;10657;51.276;6.390;2023-09-08T02:52:34;13.88;;;7.70;;
20997;SDS011;10657;51.276;6.390;2023-09-08T02:55:01;12.10;;;7.78;;
20997;SDS011;10657;51.276;6.390;2023-09-08T02:57:28;11.98;;;7.72;;
20997;SDS011;10657;51.276;6.390;2023-09-08T02:59:54;14.10;;;7.80;;
20997;SDS011;10657;51.276;6.390;2023-09-08T03:02:24;12.13;;;7.60;;
20997;SDS011;10657;51.276;6.390;2023-09-08T03:04:51;11.02;;;7.35;;
20997;SDS011;10657;51.276;6.390;2023-09-08T03:07:18;14.90;;;7.60;;
20997;SDS011;10657;51.276;6.390;2023-09-08T03:09:45;11.45;;;7.10;;
20997;SDS011;10657;51.276;6.390;2023-09-08T03:12:12;11.35;;;7.13;;
20997;SDS011;10657;51.276;6.390;2023-09-08T03:14:38;11.68;;;6.78;;
20997;SDS011;10657;51.276;6.390;2023-09-08T03:17:05;11.77;;;7.53;;
20997;SDS011;10657;51.276;6.390;2023-09-08T03:19:32;12.02;;;7.45;;
20997;SDS011;10657;51.276;6.390;2023-09-08T03:21:59;16.65;;;7.60;;
20997;SDS011;10657;51.276;6.390;2023-09-08T03:24:26;13.18;;;7.88;;
20997;SDS011;10657;51.276;6.390;2023-09-08T03:26:52;12.70;;;7.63;;
20997;SDS011;10657;51.276;6.390;2023-09-08T03:29:19;15.63;;;7.40;;
20997;SDS011;10657;51.276;6.390;2023-09-08T03:31:46;12.07;;;7.43;;
20997;SDS011;10657;51.276;6.390;2023-09-08T03:34:13;13.10;;;7.60;;
20997;SDS011;10657;51.276;6.390;2023-09-08T03:36:40;13.45;;;8.13;;
20997;SDS011;10657;51.276;6.390;2023-09-08T03:39:07;15.45;;;8.50;;
20997;SDS011;10657;51.276;6.390;2023-09-08T03:41:35;15.75;;;7.93;;
20997;SDS011;10657;51.276;6.390;2023-09-08T03:44:02;11.48;;;7.45;;
20997;SDS011;10657;51.276;6.390;2023-09-08T03:46:29;13.15;;;8.15;;
20997;SDS011;10657;51.276;6.390;2023-09-08T03:48:56;12.90;;;8.07;;
20997;SDS011;10657;51.276;6.390;2023-09-08T03:51:27;13.07;;;7.60;;
20997;SDS011;10657;51.276;6.390;2023-09-08T03:53:54;19.10;;;8.13;;
20997;SDS011;10657;51.276;6.390;2023-09-08T03:56:21;13.45;;;7.90;;
20997;SDS011;10657;51.276;6.390;2023-09-08T03:58:47;13.52;;;8.07;;
20997;SDS011;10657;51.276;6.390;2023-09-08T04:01:14;16.10;;;8.00;;
20997;SDS011;10657;51.276;6.390;2023-09-08T04:03:41;13.20;;;7.88;;
20997;SDS011;10657;51.276;6.390;2023-09-08T04:06:08;12.23;;;8.00;;
20997;SDS011;10657;51.276;6.390;2023-09-08T04:08:35;14.02;;;8.57;;
20997;SDS011;10657;51.276;6.390;2023-09-08T04:11:02;12.80;;;8.15;;
20997;SDS011;10657;51.276;6.390;2023-09-08T04:13:28;13.20;;;8.70;;
20997;SDS011;10657;51.276;6.390;2023-09-08T04:15:55;12.35;;;8.10;;
20997;SDS011;10657;51.276;6.390;2023-09-08T04:18:22;13.70;;;7.95;;
20997;SDS011;10657;51.276;6.390;2023-09-08T04:20:48;19.08;;;8.13;;
20997;SDS011;10657;51.276;6.390;2023-09-08T04:23:15;12.82;;;7.47;;
20997;SDS011;10657;51.276;6.390;2023-09-08T04:25:42;12.45;;;7.38;;
20997;SDS011;10657;51.276;6.390;2023-09-08T04:28:08;14.00;;;7.60;;
20997;SDS011;10657;51.276;6.390;2023-09-08T04:30:35;12.88;;;7.63;;
20997;SDS011;10657;51.276;6.390;2023-09-08T04:33:02;14.30;;;8.18;;
20997;SDS011;10657;51.276;6.390;2023-09-08T04:35:29;16.63;;;8.50;;
20997;SDS011;10657;51.276;6.390;2023-09-08T04:37:55;11.40;;;7.22;;
20997;SDS011;10657;51.276;6.390;2023-09-08T04:40:22;12.73;;;7.60;;
20997;SDS011;10657;51.276;6.390;2023-09-08T04:42:49;13.27;;;7.22;;
20997;SDS011;10657;51.276;6.390;2023-09-08T04:45:15;11.93;;;7.45;;
20997;SDS011;10657;51.276;6.390;2023-09-08T04:47:42;14.90;;;7.35;;
20997;SDS011;10657;51.276;6.390;2023-09-08T04:50:09;14.95;;;7.10;;
20997;SDS011;10657;51.276;6.390;2023-09-08T04:52:36;13.65;;;7.32;;
20997;SDS011;10657;51.276;6.390;2023-09-08T04:55:02;12.75;;;6.90;;
20997;SDS011;10657;51.276;6.390;2023-09-08T04:57:29;16.83;;;7.40;;
20997;SDS011;10657;51.276;6.390;2023-09-08T04:59:56;15.48;;;7.63;;
20997;SDS011;10657;51.276;6.390;2023-09-08T05:02:23;13.07;;;7.90;;
20997;SDS011;10657;51.276;6.390;2023-09-08T05:04:50;12.80;;;7.03;;
20997;SDS011;10657;51.276;6.390;2023-09-08T05:07:17;13.32;;;8.10;;
20997;SDS011;10657;51.276;6.390;2023-09-08T05:09:45;12.13;;;7.70;;
20997;SDS011;10657;51.276;6.390;2023-09-08T05:12:11;15.38;;;8.23;;
20997;SDS011;10657;51.276;6.390;2023-09-08T05:14:38;16.80;;;7.65;;
20997;SDS011;10657;51.276;6.390;2023-09-08T05:17:05;14.48;;;7.25;;
20997;SDS011;10657;51.276;6.390;2023-09-08T05:19:31;15.13;;;7.47;;
20997;SDS011;10657;51.276;6.390;2023-09-08T05:21:58;18.98;;;7.88;;
20997;SDS011;10657;51.276;6.390;2023-09-08T05:24:25;14.85;;;8.02;;
20997;SDS011;10657;51.276;6.390;2023-09-08T05:26:53;13.30;;;7.68;;
20997;SDS011;10657;51.276;6.390;2023-09-08T05:29:19;15.38;;;8.93;;
20997;SDS011;10657;51.276;6.390;2023-09-08T05:31:46;15.48;;;8.05;;
20997;SDS011;10657;51.276;6.390;2023-09-08T05:34:13;19.40;;;8.15;;
20997;SDS011;10657;51.276;6.390;2023-09-08T05:36:39;14.52;;;7.90;;
20997;SDS011;10657;51.276;6.390;2023-09-08T05:39:08;14.05;;;7.85;;
20997;SDS011;10657;51.276;6.390;2023-09-08T05:41:35;12.13;;;7.47;;
20997;SDS011;10657;51.276;6.390;2023-09-08T05:44:02;13.85;;;8.15;;
20997;SDS011;10657;51.276;6.390;2023-09-08T05:46:28;12.90;;;7.70;;
20997;SDS011;10657;51.276;6.390;2023-09-08T05:48:55;12.93;;;7.90;;
20997;SDS011;10657;51.276;6.390;2023-09-08T05:51:22;14.45;;;7.55;;
20997;SDS011;10657;51.276;6.390;2023-09-08T05:53:49;14.10;;;7.65;;
20997;SDS011;10657;51.276;6.390;2023-09-08T05:56:17;18.15;;;7.97;;
20997;SDS011;10657;51.276;6.390;2023-09-08T05:58:46;14.52;;;7.93;;
20997;SDS011;10657;51.276;6.390;2023-09-08T06:01:13;16.10;;;8.25;;
20997;SDS011;10657;51.276;6.390;2023-09-08T06:03:40;17.42;;;8.35;;
20997;SDS011;10657;51.276;6.390;2023-09-08T06:06:07;19.13;;;8.60;;
20997;SDS011;10657;51.276;6.390;2023-09-08T06:08:34;15.45;;;7.93;;
20997;SDS011;10657;51.276;6.390;2023-09-08T06:11:01;15.32;;;8.13;;
20997;SDS011;10657;51.276;6.390;2023-09-08T06:13:28;15.57;;;8.10;;
20997;SDS011;10657;51.276;6.390;2023-09-08T06:15:54;14.63;;;8.60;;
20997;SDS011;10657;51.276;6.390;2023-09-08T06:18:21;14.25;;;7.63;;
20997;SDS011;10657;51.276;6.390;2023-09-08T06:20:48;14.50;;;8.10;;
20997;SDS011;10657;51.276;6.390;2023-09-08T06:23:15;15.35;;;7.95;;
20997;SDS011;10657;51.276;6.390;2023-09-08T06:25:41;16.02;;;7.80;;
20997;SDS011;10657;51.276;6.390;2023-09-08T06:28:08;12.23;;;7.60;;
20997;SDS011;10657;51.276;6.390;2023-09-08T06:30:35;12.90;;;7.82;;
20997;SDS011;10657;51.276;6.390;2023-09-08T06:33:01;12.57;;;7.82;;
20997;SDS011;10657;51.276;6.390;2023-09-08T06:35:29;12.18;;;7.88;;
20997;SDS011;10657;51.276;6.390;2023-09-08T06:37:56;11.65;;;7.38;;
20997;SDS011;10657;51.276;6.390;2023-09-08T06:40:24;15.15;;;7.30;;
20997;SDS011;10657;51.276;6.390;2023-09-08T06:42:50;14.30;;;6.85;;
20997;SDS011;10657;51.276;6.390;2023-09-08T06:45:17;13.43;;;6.63;;
20997;SDS011;10657;51.276;6.390;2023-09-08T06:47:44;9.55;;;5.60;;
20997;SDS011;10657;51.276;6.390;2023-09-08T06:50:11;14.07;;;7.30;;
20997;SDS011;10657;51.276;6.390;2023-09-08T06:52:38;10.43;;;6.18;;
20997;SDS011;10657;51.276;6.390;2023-09-08T06:55:05;12.70;;;6.22;;
20997;SDS011;10657;51.276;6.390;2023-09-08T06:57:32;12.05;;;6.15;;
20997;SDS011;10657;51.276;6.390;2023-09-08T06:59:59;10.52;;;5.88;;
20997;SDS011;10657;51.276;6.390;2023-09-08T07:02:25;12.75;;;6.88;;
20997;SDS011;10657;51.276;6.390;2023-09-08T07:04:53;9.65;;;6.13;;
20997;SDS011;10657;51.276;6.390;2023-09-08T07:07:20;11.00;;;6.53;;
20997;SDS011;10657;51.276;6.390;2023-09-08T07:09:48;12.40;;;6.13;;
20997;SDS011;10657;51.276;6.390;2023-09-08T07:12:14;10.90;;;5.82;;
20997;SDS011;10657;51.276;6.390;2023-09-08T07:14:41;12.63;;;5.97;;
20997;SDS011;10657;51.276;6.390;2023-09-08T07:17:08;12.15;;;6.35;;
20997;SDS011;10657;51.276;6.390;2023-09-08T07:19:34;9.70;;;6.00;;
20997;SDS011;10657;51.276;6.390;2023-09-08T07:22:01;9.88;;;5.80;;
20997;SDS011;10657;51.276;6.390;2023-09-08T07:24:28;7.97;;;4.68;;
20997;SDS011;10657;51.276;6.390;2023-09-08T07:26:55;14.25;;;5.65;;
20997;SDS011;10657;51.276;6.390;2023-09-08T07:29:21;10.18;;;5.90;;
20997;SDS011;10657;51.276;6.390;2023-09-08T07:31:48;9.63;;;5.50;;
20997;SDS011;10657;51.276;6.390;2023-09-08T07:34:15;11.75;;;6.63;;
20997;SDS011;10657;51.276;6.390;2023-09-08T07:36:41;9.10;;;5.25;;
20997;SDS011;10657;51.276;6.390;2023-09-08T07:39:08;14.65;;;6.78;;
20997;SDS011;10657;51.276;6.390;2023-09-08T07:41:35;14.00;;;6.85;;
20997;SDS011;10657;51.276;6.390;2023-09-08T07:44:02;10.95;;;6.53;;
20997;SDS011;10657;51.276;6.390;2023-09-08T07:46:29;10.57;;;5.53;;
20997;SDS011;10657;51.276;6.390;2023-09-08T07:48:57;10.75;;;6.28;;
20997;SDS011;10657;51.276;6.390;2023-09-08T07:51:25;10.88;;;5.47;;
20997;SDS011;10657;51.276;6.390;2023-09-08T07:53:53;11.75;;;6.10;;
20997;SDS011;10657;51.276;6.390;2023-09-08T07:56:20;10.77;;;6.15;;
20997;SDS011;10657;51.276;6.390;2023-09-08T07:58:46;9.07;;;5.05;;
20997;SDS011;10657;51.276;6.390;2023-09-08T08:01:13;11.13;;;5.80;;
20997;SDS011;10657;51.276;6.390;2023-09-08T08:03:41;10.30;;;6.15;;
20997;SDS011;10657;51.276;6.390;2023-09-08T08:06:08;9.80;;;5.63;;
20997;SDS011;10657;51.276;6.390;2023-09-08T08:08:34;11.85;;;6.75;;
20997;SDS011;10657;51.276;6.390;2023-09-08T08:11:11;10.07;;;4.72;;
20997;SDS011;10657;51.276;6.390;2023-09-08T08:13:39;10.60;;;6.18;;
20997;SDS011;10657;51.276;6.390;2023-09-08T08:16:07;10.82;;;5.85;;
20997;SDS011;10657;51.276;6.390;2023-09-08T08:18:34;10.50;;;5.78;;
20997;SDS011;10657;51.276;6.390;2023-09-08T08:21:01;11.15;;;5.72;;
20997;SDS011;10657;51.276;6.390;2023-09-08T08:23:29;11.95;;;6.90;;
20997;SDS011;10657;51.276;6.390;2023-09-08T08:25:58;11.82;;;5.47;;
20997;SDS011;10657;51.276;6.390;2023-09-08T08:28:25;12.25;;;6.28;;
20997;SDS011;10657;51.276;6.390;2023-09-08T08:30:51;9.80;;;5.55;;
20997;SDS011;10657;51.276;6.390;2023-09-08T08:33:18;11.80;;;6.70;;
20997;SDS011;10657;51.276;6.390;2023-09-08T08:35:50;11.73;;;6.90;;
20997;SDS011;10657;51.276;6.390;2023-09-08T08:38:18;11.43;;;6.72;;
20997;SDS011;10657;51.276;6.390;2023-09-08T08:40:45;10.55;;;6.13;;
20997;SDS011;10657;51.276;6.390;2023-09-08T08:43:12;11.27;;;6.80;;
20997;SDS011;10657;51.276;6.390;2023-09-08T08:45:41;12.32;;;6.28;;
20997;SDS011;10657;51.276;6.390;2023-09-08T08:48:09;12.35;;;5.38;;
20997;SDS011;10657;51.276;6.390;2023-09-08T08:50:40;10.55;;;5.53;;
20997;SDS011;10657;51.276;6.390;2023-09-08T08:53:09;12.07;;;5.80;;
20997;SDS011;10657;51.276;6.390;2023-09-08T08:55:38;12.15;;;6.15;;
20997;SDS011;10657;51.276;6.390;2023-09-08T08:58:05;10.60;;;5.97;;
20997;SDS011;10657;51.276;6.390;2023-09-08T09:00:35;12.30;;;6.68;;
20997;SDS011;10657;51.276;6.390;2023-09-08T09:03:04;11.40;;;6.10;;
20997;SDS011;10657;51.276;6.390;2023-09-08T09:05:41;10.63;;;5.13;;
20997;SDS011;10657;51.276;6.390;2023-09-08T09:08:14;12.93;;;6.28;;
20997;SDS011;10657;51.276;6.390;2023-09-08T09:10:42;12.82;;;5.50;;
20997;SDS011;10657;51.276;6.390;2023-09-08T09:13:09;9.00;;;5.25;;
20997;SDS011;10657;51.276;6.390;2023-09-08T09:15:35;12.05;;;5.90;;
20997;SDS011;10657;51.276;6.390;2023-09-08T09:18:03;10.23;;;5.93;;
20997;SDS011;10657;51.276;6.390;2023-09-08T09:20:34;8.80;;;5.03;;
20997;SDS011;10657;51.276;6.390;2023-09-08T09:23:01;9.80;;;5.18;;
20997;SDS011;10657;51.276;6.390;2023-09-08T09:25:28;7.55;;;4.75;;
20997;SDS011;10657;51.276;6.390;2023-09-08T09:27:58;11.50;;;5.93;;
20997;SDS011;10657;51.276;6.390;2023-09-08T09:30:26;8.40;;;4.38;;
20997;SDS011;10657;51.276;6.390;2023-09-08T09:33:03;10.90;;;6.68;;
20997;SDS011;10657;51.276;6.390;2023-09-08T09:35:44;8.75;;;4.82;;
20997;SDS011;10657;51.276;6.390;2023-09-08T09:38:16;13.82;;;7.40;;
20997;SDS011;10657;51.276;6.390;2023-09-08T09:40:47;9.70;;;5.65;;
20997;SDS011;10657;51.276;6.390;2023-09-08T09:43:14;13.65;;;5.20;;
20997;SDS011;10657;51.276;6.390;2023-09-08T09:45:42;12.35;;;6.30;;
20997;SDS011;10657;51.276;6.390;2023-09-08T09:48:10;9.80;;;5.68;;
20997;SDS011;10657;51.276;6.390;2023-09-08T09:50:38;14.00;;;6.32;;
20997;SDS011;10657;51.276;6.390;2023-09-08T09:53:13;13.75;;;6.03;;
20997;SDS011;10657;51.276;6.390;2023-09-08T09:55:41;9.57;;;4.75;;
20997;SDS011;10657;51.276;6.390;2023-09-08T09:58:09;10.57;;;4.97;;
20997;SDS011;10657;51.276;6.390;2023-09-08T10:00:37;9.25;;;4.95;;
20997;SDS011;10657;51.276;6.390;2023-09-08T10:03:07;12.57;;;6.00;;
20997;SDS011;10657;51.276;6.390;2023-09-08T10:05:35;11.20;;;5.50;;
20997;SDS011;10657;51.276;6.390;2023-09-08T10:08:03;9.95;;;6.10;;
20997;SDS011;10657;51.276;6.390;2023-09-08T10:10:30;9.27;;;5.07;;
20997;SDS011;10657;51.276;6.390;2023-09-08T10:13:00;12.90;;;6.13;;
20997;SDS011;10657;51.276;6.390;2023-09-08T10:15:30;12.02;;;5.50;;
20997;SDS011;10657;51.276;6.390;2023-09-08T10:17:58;10.52;;;6.57;;
20997;SDS011;10657;51.276;6.390;2023-09-08T10:20:29;8.20;;;4.53;;
20997;SDS011;10657;51.276;6.390;2023-09-08T10:25:59;8.30;;;4.82;;
20997;SDS011;10657;51.276;6.390;2023-09-08T10:28:31;8.05;;;4.57;;
20997;SDS011;10657;51.276;6.390;2023-09-08T10:31:00;8.25;;;4.70;;
20997;SDS011;10657;51.276;6.390;2023-09-08T10:33:28;10.25;;;5.90;;
20997;SDS011;10657;51.276;6.390;2023-09-08T10:35:57;12.82;;;5.53;;
20997;SDS011;10657;51.276;6.390;2023-09-08T10:38:26;8.95;;;4.95;;
20997;SDS011;10657;51.276;6.390;2023-09-08T10:41:25;9.70;;;4.90;;
20997;SDS011;10657;51.276;6.390;2023-09-08T10:43:44;10.75;;;6.15;;
20997;SDS011;10657;51.276;6.390;2023-09-08T10:46:31;10.90;;;6.22;;
20997;SDS011;10657;51.276;6.390;2023-09-08T10:49:03;13.75;;;6.05;;
20997;SDS011;10657;51.276;6.390;2023-09-08T10:51:33;9.15;;;5.20;;
20997;SDS011;10657;51.276;6.390;2023-09-08T10:54:01;10.13;;;5.70;;
20997;SDS011;10657;51.276;6.390;2023-09-08T10:56:29;12.65;;;5.68;;
20997;SDS011;10657;51.276;6.390;2023-09-08T10:59:28;11.18;;;5.10;;
20997;SDS011;10657;51.276;6.390;2023-09-08T11:02:04;11.10;;;4.88;;
20997;SDS011;10657;51.276;6.390;2023-09-08T11:04:31;9.10;;;5.00;;
20997;SDS011;10657;51.276;6.390;2023-09-08T11:07:00;9.70;;;4.95;;
20997;SDS011;10657;51.276;6.390;2023-09-08T11:09:27;11.43;;;6.03;;
20997;SDS011;10657;51.276;6.390;2023-09-08T11:11:53;10.55;;;5.85;;
20997;SDS011;10657;51.276;6.390;2023-09-08T11:14:21;9.60;;;5.13;;
20997;SDS011;10657;51.276;6.390;2023-09-08T11:16:48;9.10;;;5.38;;
20997;SDS011;10657;51.276;6.390;2023-09-08T11:19:15;9.05;;;5.78;;
20997;SDS011;10657;51.276;6.390;2023-09-08T11:21:41;9.50;;;5.60;;
20997;SDS011;10657;51.276;6.390;2023-09-08T11:24:09;8.50;;;4.80;;
20997;SDS011;10657;51.276;6.390;2023-09-08T11:26:40;12.48;;;5.97;;
20997;SDS011;10657;51.276;6.390;2023-09-08T11:29:07;10.15;;;6.25;;
20997;SDS011;10657;51.276;6.390;2023-09-08T11:31:33;10.10;;;6.00;;
20997;SDS011;10657;51.276;6.390;2023-09-08T11:34:00;10.45;;;6.63;;
20997;SDS011;10657;51.276;6.390;2023-09-08T11:36:27;9.85;;;6.18;;
20997;SDS011;10657;51.276;6.390;2023-09-08T11:38:55;10.80;;;5.55;;
20997;SDS011;10657;51.276;6.390;2023-09-08T11:41:22;11.70;;;5.78;;
20997;SDS011;10657;51.276;6.390;2023-09-08T11:43:49;8.52;;;5.20;;
20997;SDS011;10657;51.276;6.390;2023-09-08T11:46:17;9.68;;;5.50;;
20997;SDS011;10657;51.276;6.390;2023-09-08T11:48:44;9.32;;;5.38;;
20997;SDS011;10657;51.276;6.390;2023-09-08T11:51:12;9.60;;;5.45;;
20997;SDS011;10657;51.276;6.390;2023-09-08T11:53:38;8.40;;;5.18;;
20997;SDS011;10657;51.276;6.390;2023-09-08T11:56:06;9.20;;;5.38;;
20997;SDS011;10657;51.276;6.390;2023-09-08T11:58:33;9.40;;;5.85;;
20997;SDS011;10657;51.276;6.390;2023-09-08T12:01:01;9.68;;;5.50;;
20997;SDS011;10657;51.276;6.390;2023-09-08T12:03:29;11.68;;;6.53;;
20997;SDS011;10657;51.276;6.390;2023-09-08T12:05:56;9.48;;;5.80;;
20997;SDS011;10657;51.276;6.390;2023-09-08T12:08:24;8.98;;;5.40;;
20997;SDS011;10657;51.276;6.390;2023-09-08T12:10:53;10.77;;;6.22;;
20997;SDS011;10657;51.276;6.390;2023-09-08T12:13:20;10.35;;;5.90;;
20997;SDS011;10657;51.276;6.390;2023-09-08T12:15:48;10.35;;;5.82;;
20997;SDS011;10657;51.276;6.390;2023-09-08T12:18:15;10.45;;;6.35;;
20997;SDS011;10657;51.276;6.390;2023-09-08T12:20:42;11.63;;;6.10;;
20997;SDS011;10657;51.276;6.390;2023-09-08T12:23:21;10.52;;;5.55;;
20997;SDS011;10657;51.276;6.390;2023-09-08T12:25:49;9.80;;;5.30;;
20997;SDS011;10657;51.276;6.390;2023-09-08T12:28:18;11.10;;;5.07;;
20997;SDS011;10657;51.276;6.390;2023-09-08T12:30:46;9.18;;;5.57;;
20997;SDS011;10657;51.276;6.390;2023-09-08T12:33:15;9.40;;;5.63;;
20997;SDS011;10657;51.276;6.390;2023-09-08T12:35:44;10.32;;;5.95;;
20997;SDS011;10657;51.276;6.390;2023-09-08T12:38:12;10.27;;;6.40;;
20997;SDS011;10657;51.276;6.390;2023-09-08T12:40:40;9.25;;;5.40;;
20997;SDS011;10657;51.276;6.390;2023-09-08T12:43:07;10.10;;;6.63;;
20997;SDS011;10657;51.276;6.390;2023-09-08T12:45:53;9.77;;;5.63;;
20997;SDS011;10657;51.276;6.390;2023-09-08T12:48:23;8.70;;;5.53;;
20997;SDS011;10657;51.276;6.390;2023-09-08T12:50:50;10.88;;;6.00;;
20997;SDS011;10657;51.276;6.390;2023-09-08T12:53:17;11.13;;;5.50;;
20997;SDS011;10657;51.276;6.390;2023-09-08T12:55:47;9.32;;;5.68;;
20997;SDS011;10657;51.276;6.390;2023-09-08T12:58:15;11.13;;;6.22;;
20997;SDS011;10657;51.276;6.390;2023-09-08T13:00:45;9.15;;;5.60;;
20997;SDS011;10657;51.276;6.390;2023-09-08T13:03:11;9.32;;;4.97;;
20997;SDS011;10657;51.276;6.390;2023-09-08T13:05:38;8.75;;;5.47;;
20997;SDS011;10657;51.276;6.390;2023-09-08T13:08:06;16.75;;;5.68;;
20997;SDS011;10657;51.276;6.390;2023-09-08T13:10:33;9.60;;;5.10;;
20997;SDS011;10657;51.276;6.390;2023-09-08T13:12:59;9.70;;;5.75;;
20997;SDS011;10657;51.276;6.390;2023-09-08T13:15:26;9.73;;;5.50;;
20997;SDS011;10657;51.276;6.390;2023-09-08T13:17:53;9.32;;;5.25;;
20997;SDS011;10657;51.276;6.390;2023-09-08T13:20:20;9.70;;;5.38;;
20997;SDS011;10657;51.276;6.390;2023-09-08T13:22:46;10.88;;;6.22;;
20997;SDS011;10657;51.276;6.390;2023-09-08T13:25:13;10.60;;;5.43;;
20997;SDS011;10657;51.276;6.390;2023-09-08T13:27:40;9.43;;;6.13;;
20997;SDS011;10657;51.276;6.390;2023-09-08T13:30:12;10.25;;;6.10;;
20997;SDS011;10657;51.276;6.390;2023-09-08T13:32:40;8.52;;;5.30;;
20997;SDS011;10657;51.276;6.390;2023-09-08T13:35:07;11.88;;;6.03;;
20997;SDS011;10657;51.276;6.390;2023-09-08T13:37:34;8.68;;;4.85;;
20997;SDS011;10657;51.276;6.390;2023-09-08T13:40:03;10.93;;;6.38;;
20997;SDS011;10657;51.276;6.390;2023-09-08T13:42:31;8.98;;;5.95;;
20997;SDS011;10657;51.276;6.390;2023-09-08T13:44:58;10.93;;;6.28;;
20997;SDS011;10657;51.276;6.390;2023-09-08T13:47:26;9.63;;;5.57;;
20997;SDS011;10657;51.276;6.390;2023-09-08T13:49:53;11.02;;;4.90;;
20997;SDS011;10657;51.276;6.390;2023-09-08T13:52:23;14.32;;;6.63;;
20997;SDS011;10657;51.276;6.390;2023-09-08T13:54:57;9.43;;;5.63;;
20997;SDS011;10657;51.276;6.390;2023-09-08T13:57:26;9.57;;;5.80;;
20997;SDS011;10657;51.276;6.390;2023-09-08T13:59:54;8.95;;;5.18;;
20997;SDS011;10657;51.276;6.390;2023-09-08T14:02:23;8.10;;;4.75;;
20997;SDS011;10657;51.276;6.390;2023-09-08T14:04:52;9.10;;;5.10;;
20997;SDS011;10657;51.276;6.390;2023-09-08T14:07:21;8.77;;;5.63;;
20997;SDS011;10657;51.276;6.390;2023-09-08T14:09:57;8.50;;;5.03;;
20997;SDS011;10657;51.276;6.390;2023-09-08T14:12:27;9.10;;;5.75;;
20997;SDS011;10657;51.276;6.390;2023-09-08T14:15:01;8.73;;;5.00;;
20997;SDS011;10657;51.276;6.390;2023-09-08T14:17:28;10.23;;;5.95;;
20997;SDS011;10657;51.276;6.390;2023-09-08T14:19:55;10.15;;;5.57;;
20997;SDS011;10657;51.276;6.390;2023-09-08T14:22:22;10.43;;;5.18;;
20997;SDS011;10657;51.276;6.390;2023-09-08T14:24:49;8.75;;;5.22;;
20997;SDS011;10657;51.276;6.390;2023-09-08T14:27:15;9.65;;;5.88;;
20997;SDS011;10657;51.276;6.390;2023-09-08T14:29:42;9.85;;;5.07;;
20997;SDS011;10657;51.276;6.390;2023-09-08T14:32:09;9.77;;;5.28;;
20997;SDS011;10657;51.276;6.390;2023-09-08T14:34:35;8.13;;;5.20;;
20997;SDS011;10657;51.276;6.390;2023-09-08T14:37:02;11.10;;;5.55;;
20997;SDS011;10657;51.276;6.390;2023-09-08T14:39:31;11.13;;;5.70;;
20997;SDS011;10657;51.276;6.390;2023-09-08T14:41:58;8.80;;;5.20;;
20997;SDS011;10657;51.276;6.390;2023-09-08T14:44:24;10.00;;;5.28;;
20997;SDS011;10657;51.276;6.390;2023-09-08T14:46:51;8.48;;;6.00;;